createdAt,value
2023-04-04T00:02:00.561Z,102558.44
2023-04-04T00:06:02.039Z,102556.22
2023-04-04T00:10:03.881Z,102558.72
2023-04-04T00:14:05.662Z,102559.03
2023-04-04T00:18:07.207Z,102549.66
2023-04-04T00:22:09.238Z,102554.97
2023-04-04T00:26:10.986Z,102554.00
2023-04-04T00:30:13.006Z,102561.25
2023-04-04T00:34:14.534Z,102562.34
2023-04-04T00:38:16.002Z,102556.97
2023-04-04T00:42:17.948Z,102565.88
2023-04-04T00:46:19.586Z,102555.78
2023-04-04T00:50:21.060Z,102562.50
2023-04-04T00:54:22.608Z,102554.59
2023-04-04T00:58:25.229Z,102551.28
2023-04-04T01:02:26.813Z,102549.28
2023-04-04T01:06:30.490Z,102550.88
2023-04-04T01:10:33.210Z,102541.94
2023-04-04T01:14:34.793Z,102546.56
2023-04-04T01:18:38.398Z,102543.03
2023-04-04T01:22:42.063Z,102546.56
2023-04-04T01:26:43.478Z,102538.00
2023-04-04T01:30:45.609Z,102542.13
2023-04-04T01:34:54.563Z,102536.38
2023-04-04T01:39:09.940Z,102527.78
2023-04-04T01:43:11.412Z,102517.38
2023-04-04T01:47:13.348Z,102528.97
2023-04-04T01:51:15.014Z,102520.31
2023-04-04T01:55:16.468Z,102523.94
2023-04-04T01:59:17.936Z,102512.19
2023-04-04T02:03:19.374Z,102508.00
2023-04-04T02:07:20.860Z,102512.47
2023-04-04T02:11:23.138Z,102503.16
2023-04-04T02:15:25.193Z,102514.13
2023-04-04T02:19:27.155Z,102508.75
2023-04-04T02:23:28.642Z,102508.25
2023-04-04T02:27:30.264Z,102500.94
2023-04-04T02:31:31.713Z,102500.75
2023-04-04T02:35:33.206Z,102490.66
2023-04-04T02:39:34.642Z,102501.44
2023-04-04T02:43:36.191Z,102495.47
2023-04-04T02:47:38.228Z,102489.34
2023-04-04T02:51:39.716Z,102482.50
2023-04-04T02:55:41.162Z,102480.44
2023-04-04T02:59:42.637Z,102475.38
2023-04-04T03:03:44.051Z,102470.41
2023-04-04T03:07:45.482Z,102465.56
2023-04-04T03:11:47.008Z,102471.00
2023-04-04T03:15:49.612Z,102466.88
2023-04-04T03:19:51.341Z,102464.38
2023-04-04T03:23:52.803Z,102454.44
2023-04-04T03:27:54.203Z,102454.94
2023-04-04T03:31:55.737Z,102455.91
2023-04-04T03:35:57.216Z,102455.19
2023-04-04T03:39:58.724Z,102450.66
2023-04-04T03:44:00.488Z,102446.28
2023-04-04T03:48:02.331Z,102444.88
2023-04-04T03:52:04.061Z,102438.41
2023-04-04T03:56:05.754Z,102433.78
2023-04-04T04:00:07.773Z,102433.25
2023-04-04T04:04:09.233Z,102426.63
2023-04-04T04:08:10.771Z,102425.66
2023-04-04T04:12:12.202Z,102426.47
2023-04-04T04:16:13.627Z,102431.44
2023-04-04T04:20:15.074Z,102431.28
2023-04-04T04:24:16.669Z,102440.78
2023-04-04T04:28:18.211Z,102430.25
2023-04-04T04:32:20.160Z,102429.19
2023-04-04T04:36:21.591Z,102431.19
2023-04-04T04:40:23.078Z,102433.38
2023-04-04T04:44:24.580Z,102434.06
2023-04-04T04:48:26.080Z,102442.28
2023-04-04T04:52:32.053Z,102450.53
2023-04-04T04:56:33.519Z,102440.09
2023-04-04T05:00:34.964Z,102448.59
2023-04-04T05:04:36.513Z,102450.91
2023-04-04T05:08:38.000Z,102446.97
2023-04-04T05:12:46.174Z,102457.16
2023-04-04T05:16:48.993Z,102456.41
2023-04-04T05:20:59.729Z,102458.41
2023-04-04T05:25:01.493Z,102465.47
2023-04-04T05:29:02.940Z,102475.63
2023-04-04T05:33:04.399Z,102475.16
2023-04-04T05:37:05.900Z,102477.50
2023-04-04T05:41:07.327Z,102477.50
2023-04-04T05:45:09.404Z,102464.78
2023-04-04T05:49:11.176Z,102464.63
2023-04-04T05:53:12.711Z,102469.34
2023-04-04T05:57:14.220Z,102470.00
2023-04-04T06:01:15.852Z,102472.44
2023-04-04T06:05:17.381Z,102474.69
2023-04-04T06:09:18.812Z,102481.28
2023-04-04T06:13:20.243Z,102477.34
2023-04-04T06:17:21.802Z,102474.34
2023-04-04T06:21:23.238Z,102479.81
2023-04-04T06:25:26.769Z,102477.28
2023-04-04T06:29:28.538Z,102481.81
2023-04-04T06:33:29.994Z,102477.59
2023-04-04T06:37:31.471Z,102481.19
2023-04-04T06:41:32.941Z,102483.09
2023-04-04T06:45:35.729Z,102486.44
2023-04-04T06:49:37.463Z,102488.22
2023-04-04T06:53:38.949Z,102487.72
2023-04-04T06:57:40.439Z,102481.69
2023-04-04T07:01:41.998Z,102485.19
2023-04-04T07:05:43.659Z,102477.69
2023-04-04T07:09:45.114Z,102478.72
2023-04-04T07:13:46.542Z,102468.53
2023-04-04T07:17:48.068Z,102455.22
2023-04-04T07:21:49.798Z,102476.75
2023-04-04T07:25:51.893Z,102461.00
2023-04-04T07:29:53.307Z,102457.97
2023-04-04T07:33:55.281Z,102462.34
2023-04-04T07:37:57.993Z,102460.56
2023-04-04T07:41:59.426Z,102458.16
2023-04-04T07:46:01.871Z,102453.16
2023-04-04T07:50:04.184Z,102450.16
2023-04-04T07:54:05.845Z,102447.19
2023-04-04T07:58:07.340Z,102445.91
2023-04-04T08:02:08.728Z,102443.44
2023-04-04T08:06:11.023Z,102445.91
2023-04-04T08:10:12.555Z,102439.06
2023-04-04T08:14:13.998Z,102434.69
2023-04-04T08:18:15.499Z,102433.34
2023-04-04T08:22:16.924Z,102431.13
2023-04-04T08:26:18.356Z,102428.91
2023-04-04T08:30:20.212Z,102427.19
2023-04-04T08:34:23.515Z,102422.19
2023-04-04T08:38:24.962Z,102427.56
2023-04-04T08:42:28.287Z,102417.22
2023-04-04T08:46:30.121Z,102424.91
2023-04-04T08:50:32.305Z,102425.25
2023-04-04T08:54:35.620Z,102424.56
2023-04-04T08:58:39.066Z,102423.09
2023-04-04T09:02:50.208Z,102412.94
2023-04-04T09:06:52.065Z,102426.69
2023-04-04T09:10:54.479Z,102410.59
2023-04-04T09:14:57.175Z,102404.81
2023-04-04T09:18:58.666Z,102410.81
2023-04-04T09:23:00.121Z,102403.53
2023-04-04T09:27:02.120Z,102402.94
2023-04-04T09:31:07.383Z,102397.47
2023-04-04T09:35:10.611Z,102399.34
2023-04-04T09:39:13.317Z,102405.44
2023-04-04T09:43:15.851Z,102406.13
2023-04-04T09:47:31.536Z,102400.19
2023-04-04T09:51:38.577Z,102399.97
2023-04-04T09:55:40.789Z,102402.81
2023-04-04T09:59:43.386Z,102397.59
2023-04-04T10:03:53.684Z,102392.81
2023-04-04T10:07:57.559Z,102397.09
2023-04-04T10:12:09.831Z,102393.19
2023-04-04T10:16:12.293Z,102388.88
2023-04-04T10:20:15.095Z,102400.22
2023-04-04T10:24:18.018Z,102386.56
2023-04-04T10:28:21.356Z,102385.16
2023-04-04T10:32:30.084Z,102384.19
2023-04-04T10:36:40.695Z,102390.97
2023-04-04T10:40:48.405Z,102383.56
2023-04-04T10:44:51.053Z,102377.69
2023-04-04T10:48:52.552Z,102372.38
2023-04-04T10:52:54.168Z,102366.13
2023-04-04T10:57:00.818Z,102358.69
2023-04-04T11:01:02.488Z,102364.50
2023-04-04T11:05:12.679Z,102351.31
2023-04-04T11:09:14.174Z,102354.09
2023-04-04T11:13:22.527Z,102345.06
2023-04-04T11:17:49.154Z,102342.00
2023-04-04T11:21:50.968Z,102336.94
2023-04-04T11:25:57.028Z,102327.06
2023-04-04T11:29:59.300Z,102327.63
2023-04-04T11:34:08.690Z,102322.63
2023-04-04T11:38:15.046Z,102325.88
2023-04-04T11:42:16.709Z,102320.00
2023-04-04T11:46:18.397Z,102310.00
2023-04-04T11:50:20.779Z,102300.38
2023-04-04T11:54:22.213Z,102293.56
2023-04-04T11:58:26.299Z,102291.16
2023-04-04T12:02:31.730Z,102285.56
2023-04-04T12:06:35.493Z,102284.72
2023-04-04T12:10:39.067Z,102273.38
2023-04-04T12:14:41.283Z,102272.81
2023-04-04T12:18:44.470Z,102272.25
2023-04-04T12:22:49.829Z,102262.38
2023-04-04T12:26:52.760Z,102267.84
2023-04-04T12:30:54.511Z,102257.63
2023-04-04T12:35:00.689Z,102256.91
2023-04-04T12:39:06.604Z,102248.91
2023-04-04T12:43:09.413Z,102240.94
2023-04-04T12:47:15.817Z,102235.44
2023-04-04T12:51:18.619Z,102233.25
2023-04-04T12:55:25.477Z,102226.00
2023-04-04T12:59:31.929Z,102219.16
2023-04-04T13:03:34.655Z,102220.44
2023-04-04T13:07:44.492Z,102216.91
2023-04-04T13:12:05.041Z,102215.06
2023-04-04T13:16:08.043Z,102201.69
2023-04-04T13:20:11.919Z,102201.16
2023-04-04T13:24:13.351Z,102200.00
2023-04-04T13:28:14.882Z,102197.94
2023-04-04T13:32:16.676Z,102181.09
2023-04-04T13:36:18.237Z,102187.03
2023-04-04T13:40:19.904Z,102192.75
2023-04-04T13:44:21.390Z,102186.81
2023-04-04T13:48:22.949Z,102173.31
2023-04-04T13:52:24.590Z,102178.19
2023-04-04T13:56:26.222Z,102172.97
2023-04-04T14:00:28.445Z,102155.53
2023-04-04T14:04:29.995Z,102152.50
2023-04-04T14:08:33.124Z,102155.38
2023-04-04T14:12:35.254Z,102150.63
2023-04-04T14:16:36.770Z,102150.06
2023-04-04T14:20:38.552Z,102143.44
2023-04-04T14:24:40.103Z,102132.50
2023-04-04T14:28:42.093Z,102143.06
2023-04-04T14:32:43.932Z,102141.13
2023-04-04T14:36:45.702Z,102135.25
2023-04-04T14:40:48.161Z,102128.75
2023-04-04T14:44:49.662Z,102127.09
2023-04-04T14:48:51.702Z,102124.06
2023-04-04T14:52:53.283Z,102123.34
2023-04-04T14:56:54.743Z,102124.81
2023-04-04T15:00:56.730Z,102115.16
2023-04-04T15:04:58.240Z,102113.94
2023-04-04T15:08:59.799Z,102105.75
2023-04-04T15:13:01.302Z,102110.91
2023-04-04T15:17:02.767Z,102112.16
2023-04-04T15:21:04.991Z,102109.56
2023-04-04T15:25:08.773Z,102104.47
2023-04-04T15:29:10.289Z,102097.25
2023-04-04T15:33:11.731Z,102097.22
2023-04-04T15:37:13.200Z,102093.03
2023-04-04T15:41:14.794Z,102081.59
2023-04-04T15:45:16.538Z,102081.75
2023-04-04T15:49:18.145Z,102079.03
2023-04-04T15:53:19.619Z,102077.41
2023-04-04T15:57:21.176Z,102084.66
2023-04-04T16:01:23.400Z,102082.38
2023-04-04T16:05:25.434Z,102081.84
2023-04-04T16:09:26.914Z,102071.31
2023-04-04T16:13:28.365Z,102070.94
2023-04-04T16:17:31.348Z,102067.13
2023-04-04T16:21:33.813Z,102066.81
2023-04-04T16:25:35.709Z,102074.13
2023-04-04T16:29:37.347Z,102061.72
2023-04-04T16:33:38.884Z,102064.09
2023-04-04T16:37:40.422Z,102064.91
2023-04-04T16:41:42.019Z,102057.16
2023-04-04T16:45:45.153Z,102058.19
2023-04-04T16:49:47.958Z,102056.41
2023-04-04T16:53:49.561Z,102051.19
2023-04-04T16:57:51.002Z,102050.22
2023-04-04T17:01:52.484Z,102046.81
2023-04-04T17:05:59.527Z,102041.22
2023-04-04T17:10:01.156Z,102048.34
2023-04-04T17:14:02.761Z,102046.09
2023-04-04T17:18:04.346Z,102041.69
2023-04-04T17:22:06.005Z,102044.97
2023-04-04T17:26:07.488Z,102035.97
2023-04-04T17:30:09.722Z,102043.56
2023-04-04T17:34:12.928Z,102040.13
2023-04-04T17:38:14.489Z,102042.03
2023-04-04T17:42:16.043Z,102037.41
2023-04-04T17:46:17.786Z,102042.41
2023-04-04T17:50:24.421Z,102039.25
2023-04-04T17:54:26.810Z,102038.16
2023-04-04T17:58:28.355Z,102033.78
2023-04-04T18:02:29.842Z,102037.88
2023-04-04T18:06:31.675Z,102032.44
2023-04-04T18:10:33.140Z,102031.94
2023-04-04T18:14:34.578Z,102040.09
2023-04-04T18:18:36.630Z,102031.00
2023-04-04T18:22:38.222Z,102034.75
2023-04-04T18:26:40.218Z,102041.22
2023-04-04T18:30:42.981Z,102041.81
2023-04-04T18:34:44.556Z,102041.94
2023-04-04T18:38:47.499Z,102037.72
2023-04-04T18:42:49.310Z,102043.22
2023-04-04T18:46:50.884Z,102041.97
2023-04-04T18:50:52.364Z,102053.53
2023-04-04T18:54:53.852Z,102050.25
2023-04-04T18:58:55.765Z,102053.44
2023-04-04T19:02:57.773Z,102052.69
2023-04-04T19:07:05.656Z,102049.22
2023-04-04T19:11:07.440Z,102046.19
2023-04-04T19:15:09.445Z,102043.97
2023-04-04T19:19:11.978Z,102049.66
2023-04-04T19:23:13.898Z,102049.88
2023-04-04T19:27:15.709Z,102047.84
2023-04-04T19:31:21.761Z,102042.00
2023-04-04T19:35:53.632Z,102051.41
2023-04-04T19:39:55.370Z,102050.75
2023-04-04T19:43:56.869Z,102044.31
2023-04-04T19:47:58.505Z,102047.13
2023-04-04T19:52:05.492Z,102043.28
2023-04-04T19:56:09.388Z,102041.81
2023-04-04T20:00:13.703Z,102045.94
2023-04-04T20:04:15.555Z,102044.53
2023-04-04T20:08:17.050Z,102037.63
2023-04-04T20:12:23.542Z,102042.66
2023-04-04T20:16:26.000Z,102039.13
2023-04-04T20:20:50.374Z,102033.13
2023-04-04T20:24:52.175Z,102039.63
2023-04-04T20:28:53.693Z,102034.84
2023-04-04T20:32:55.242Z,102038.44
2023-04-04T20:36:56.848Z,102034.66
2023-04-04T20:40:58.448Z,102034.44
2023-04-04T20:45:08.878Z,102043.50
2023-04-04T20:49:10.419Z,102036.06
2023-04-04T20:53:17.940Z,102037.84
2023-04-04T20:57:24.566Z,102045.78
2023-04-04T21:01:26.127Z,102048.28
2023-04-04T21:05:29.630Z,102052.34
2023-04-04T21:09:31.168Z,102047.75
2023-04-04T21:13:37.649Z,102050.97
2023-04-04T21:17:39.487Z,102045.22
2023-04-04T21:21:41.359Z,102039.44
2023-04-04T21:25:44.988Z,102035.09
2023-04-04T21:29:46.683Z,102032.31
2023-04-04T21:33:53.797Z,102023.50
2023-04-04T21:37:55.222Z,102028.56
2023-04-04T21:42:03.270Z,102034.59
2023-04-04T21:46:06.338Z,102020.84
2023-04-04T21:50:08.271Z,102023.59
2023-04-04T21:54:10.184Z,102023.00
2023-04-04T21:58:12.527Z,102028.56
2023-04-04T22:02:14.114Z,102027.22
2023-04-04T22:06:15.649Z,102030.22
2023-04-04T22:10:18.838Z,102030.22
2023-04-04T22:14:20.282Z,102031.91
2023-04-04T22:18:30.561Z,102021.75
2023-04-04T22:22:32.746Z,102019.84
2023-04-04T22:26:34.395Z,102018.78
2023-04-04T22:30:38.989Z,102016.88
2023-04-04T22:34:41.136Z,102010.59
2023-04-04T22:38:42.969Z,102016.88
2023-04-04T22:42:44.575Z,102022.09
2023-04-04T22:46:46.750Z,102017.78
2023-04-04T22:50:55.530Z,102010.63
2023-04-04T22:54:58.115Z,102005.72
2023-04-04T22:58:59.539Z,102001.88
2023-04-04T23:03:02.223Z,102002.69
2023-04-04T23:07:04.196Z,102005.97
2023-04-04T23:11:05.666Z,101998.03
2023-04-04T23:15:08.289Z,101998.56
2023-04-04T23:19:09.802Z,101999.13
2023-04-04T23:23:11.894Z,101999.41
2023-04-04T23:27:13.605Z,101997.72
2023-04-04T23:31:16.096Z,101981.59
2023-04-04T23:35:17.683Z,101980.25
2023-04-04T23:39:19.179Z,101977.16
2023-04-04T23:43:20.742Z,101990.31
2023-04-04T23:47:22.253Z,101977.69
2023-04-04T23:51:25.589Z,101980.13
2023-04-04T23:55:27.324Z,101970.59
2023-04-04T23:59:28.878Z,101969.22
